Athens, Alabama
Current Conditions -  °F | °C
As of 1:53 AM on Saturday 20 Dec 2014 (Local Time) from KDCU Reporting Station
Overcast Overcast  
Wind Chill:   Ceiling: 6500
Heat Index:   Visibility: 8mi
Dew Point:   Wind: 6mph
Humidity: 76%   Direction: 350°N
Pressure: 30.19"   Gusts: NA
Location:  34.8°N, 86.97°W
Report Text: KDCU 200753Z AUTO 35005KT 8SM SCT055 OVC065 04/00 A3019 RMK AO2 RAB27E38 SLP227 P0000 T00390000
Loading
Personal Weather Stations






























Interactive Weather Map New forecast layout! Learn more

10-Day Weather Forecast

Advertisements
Track Severe Weather on mobile